Time;durP1;ratioP1;P1;durP2;ratioP2;P2;SDS_P1;SDS_P2;PMS_P1;PMS_P2;Temp;Humidity;BMP_temperature;BMP_pressure;BME280_temperature;BME280_humidity;BME280_pressure;Samples;Min_cycle;Max_cycle;Signal;HPM_P1;HPM_P2
2021/04/20 09:18:05;;;;;;;24.40;8.27;;;14.30;75.10;;;;;;12144481;27;20426;-75
2021/04/20 09:24:04;;;;;;;16.13;7.65;;;15.00;74.20;;;;;;12139358;28;20067;-75
2021/04/20 09:29:56;;;;;;;23.73;10.98;;;15.90;72.40;;;;;;12143747;28;20513;-74
2021/04/20 09:35:44;;;;;;;28.00;12.00;;;16.50;68.40;;;;;;12142783;27;20493;-74
2021/04/20 09:41:35;;;;;;;26.17;14.07;;;17.00;68.40;;;;;;12146577;28;20502;-75
2021/04/20 09:47:41;;;;;;;26.70;13.25;;;17.20;68.60;;;;;;12146276;28;20054;-74
2021/04/20 09:53:45;;;;;;;30.60;14.05;;;17.50;66.90;;;;;;12137165;28;23780;-74
2021/04/20 09:59:40;;;;;;;30.23;12.10;;;17.60;66.30;;;;;;12139263;28;20081;-75
2021/04/20 10:05:36;;;;;;;34.95;15.80;;;17.60;65.60;;;;;;12136661;28;20170;-77
2021/04/20 10:11:31;;;;;;;24.48;12.77;;;17.70;65.40;;;;;;12143091;28;20047;-72
2021/04/20 10:17:28;;;;;;;32.58;14.95;;;17.90;64.30;;;;;;12133006;28;20039;-72
2021/04/20 10:23:23;;;;;;;28.05;12.63;;;17.70;61.80;;;;;;12130342;28;20117;-72
2021/04/20 10:29:31;;;;;;;30.40;13.02;;;17.70;62.00;;;;;;12099141;28;20413;-73
2021/04/20 10:35:20;;;;;;;23.63;12.32;;;17.80;61.90;;;;;;12096596;28;20044;-73
2021/04/20 10:41:22;;;;;;;22.50;11.77;;;18.00;62.60;;;;;;12100282;28;20051;-73
2021/04/20 10:47:23;;;;;;;32.08;13.63;;;17.80;61.80;;;;;;12108138;28;20048;-74
2021/04/20 10:53:13;;;;;;;28.58;13.70;;;17.60;62.80;;;;;;12111308;28;20591;-73
2021/04/20 10:59:03;;;;;;;27.55;12.80;;;17.50;62.80;;;;;;12106462;28;20047;-73
2021/04/20 11:04:53;;;;;;;27.15;12.15;;;17.40;62.30;;;;;;12104008;28;20130;-73
2021/04/20 11:10:41;;;;;;;21.08;10.77;;;17.20;60.60;;;;;;12106614;28;20082;-74
2021/04/20 11:16:34;;;;;;;28.13;11.48;;;17.30;60.10;;;;;;12102787;28;20056;-73
2021/04/20 11:22:24;;;;;;;23.65;13.70;;;17.40;59.90;;;;;;12105540;28;20547;-74
2021/04/20 11:28:18;;;;;;;49.03;20.67;;;17.30;61.00;;;;;;12090657;28;20047;-73
2021/04/20 11:34:14;;;;;;;20.27;11.07;;;17.40;61.00;;;;;;12108868;28;20074;-73
2021/04/20 11:40:05;;;;;;;22.13;10.75;;;17.90;58.50;;;;;;12080962;28;20055;-73
2021/04/20 11:45:52;;;;;;;21.25;10.23;;;18.30;57.50;;;;;;12095511;28;20048;-74
2021/04/20 11:51:41;;;;;;;18.70;8.75;;;18.90;57.20;;;;;;12096645;28;20048;-74
2021/04/20 11:57:29;;;;;;;17.13;9.10;;;19.40;54.70;;;;;;12098760;28;20139;-74
2021/04/20 12:03:18;;;;;;;14.73;8.65;;;19.60;52.50;;;;;;12086793;28;20426;-73
2021/04/20 12:09:05;;;;;;;19.10;9.70;;;19.50;54.40;;;;;;12097699;28;20554;-74
2021/04/20 12:14:53;;;;;;;18.17;7.78;;;19.60;53.10;;;;;;12091034;28;20058;-74
2021/04/20 12:20:40;;;;;;;17.33;8.38;;;19.20;52.60;;;;;;12088782;28;20507;-76
2021/04/20 12:26:29;;;;;;;17.90;7.68;;;18.90;52.70;;;;;;12089053;28;20415;-73
2021/04/20 12:32:19;;;;;;;17.67;8.07;;;19.00;52.60;;;;;;12092461;28;20055;-73
2021/04/20 12:38:06;;;;;;;18.70;8.27;;;19.30;53.10;;;;;;12096339;28;20088;-74
2021/04/20 12:43:57;;;;;;;16.70;7.90;;;19.90;52.90;;;;;;12096058;28;20040;-76
2021/04/20 12:49:49;;;;;;;95.20;53.20;;;20.50;51.90;;;;;;12094138;28;20052;-78
2021/04/20 12:55:39;;;;;;;18.88;9.25;;;20.70;51.40;;;;;;12098676;28;20039;-77
2021/04/20 13:01:27;;;;;;;15.80;9.82;;;20.50;50.20;;;;;;12091163;28;20059;-78
2021/04/20 13:07:15;;;;;;;15.70;8.07;;;20.10;50.20;;;;;;12087037;28;20059;-76
2021/04/20 13:13:06;;;;;;;16.30;8.02;;;19.80;51.10;;;;;;12093855;28;20490;-75
2021/04/20 13:19:02;;;;;;;10.80;6.90;;;19.60;51.40;;;;;;12098544;28;20514;-76
2021/04/20 13:24:57;;;;;;;15.10;7.82;;;19.30;50.90;;;;;;12093970;28;20044;-77
2021/04/20 13:30:50;;;;;;;15.15;7.40;;;19.20;52.30;;;;;;12099060;28;20060;-77
2021/04/20 13:36:43;;;;;;;12.07;7.77;;;19.30;51.30;;;;;;12090271;28;20052;-77
2021/04/20 13:42:33;;;;;;;17.30;8.75;;;19.30;51.70;;;;;;12087216;28;20519;-77
2021/04/20 13:48:22;;;;;;;17.38;8.82;;;19.40;51.40;;;;;;12092519;28;20051;-76
2021/04/20 13:54:11;;;;;;;14.88;8.52;;;19.40;51.40;;;;;;12089675;28;20069;-77
2021/04/20 14:00:06;;;;;;;12.90;8.20;;;19.40;51.40;;;;;;12090348;28;20064;-76
2021/04/20 14:05:55;;;;;;;22.98;8.38;;;19.40;51.50;;;;;;12105600;28;20048;-76
2021/04/20 14:11:47;;;;;;;21.02;7.45;;;19.50;52.70;;;;;;12111896;28;20487;-75
2021/04/20 14:17:40;;;;;;;16.25;7.47;;;19.50;53.20;;;;;;12107248;28;20052;-77
2021/04/20 14:23:30;;;;;;;9.73;6.03;;;19.70;53.10;;;;;;12112875;28;20044;-76
2021/04/20 14:29:18;;;;;;;12.82;6.93;;;20.10;52.30;;;;;;12105743;28;20128;-75
2021/04/20 14:35:07;;;;;;;12.10;6.25;;;20.30;50.80;;;;;;12104904;28;20052;-77
2021/04/20 14:40:55;;;;;;;16.17;7.45;;;20.40;51.50;;;;;;12100875;28;20052;-77
2021/04/20 14:46:44;;;;;;;13.15;7.47;;;20.50;49.80;;;;;;12115435;28;20051;-76
2021/04/20 14:52:32;;;;;;;17.15;7.55;;;20.40;51.10;;;;;;12113287;28;20054;-76
2021/04/20 14:58:26;;;;;;;17.10;7.55;;;20.50;50.80;;;;;;12106853;28;20479;-77
2021/04/20 15:04:15;;;;;;;;;;;20.50;49.50;;;;;;12105583;28;20051;-77
2021/04/20 15:10:08;;;;;;;13.65;7.07;;;20.70;50.60;;;;;;12114205;28;19924;-78
2021/04/20 15:15:59;;;;;;;10.25;6.40;;;21.20;49.60;;;;;;12106402;28;20052;-75
2021/04/20 15:21:49;;;;;;;13.18;7.35;;;21.80;48.50;;;;;;12106946;28;20583;-75
2021/04/20 15:27:40;;;;;;;15.15;7.00;;;22.20;47.30;;;;;;12109264;28;20048;-77
2021/04/20 15:33:29;;;;;;;16.27;6.25;;;22.40;46.00;;;;;;12109446;28;20461;-76
2021/04/20 15:39:16;;;;;;;9.52;5.70;;;22.50;46.00;;;;;;12101947;28;20123;-76
2021/04/20 15:45:07;;;;;;;9.18;5.32;;;22.60;46.60;;;;;;12101293;28;20044;-76
2021/04/20 15:50:56;;;;;;;12.75;5.90;;;22.60;45.40;;;;;;12098345;28;20044;-76
2021/04/20 15:56:51;;;;;;;10.63;5.20;;;22.80;45.60;;;;;;12102112;28;20044;-76
2021/04/20 16:02:41;;;;;;;12.63;6.85;;;22.70;45.50;;;;;;12099841;28;20704;-78
2021/04/20 16:08:29;;;;;;;10.10;5.68;;;22.20;45.80;;;;;;12109283;28;20067;-79
2021/04/20 16:14:19;;;;;;;9.25;4.80;;;21.90;46.00;;;;;;12110756;28;20052;-78
2021/04/20 16:20:09;;;;;;;11.38;5.28;;;22.00;46.00;;;;;;12116856;28;20557;-78
2021/04/20 16:25:56;;;;;;;12.15;4.72;;;23.60;44.20;;;;;;12110718;28;20058;-77
2021/04/20 16:31:46;;;;;;;6.22;4.75;;;26.00;40.50;;;;;;12109490;28;20047;-78
2021/04/20 16:37:44;;;;;;;7.13;5.20;;;28.40;37.10;;;;;;12108398;28;20852;-77
2021/04/20 16:43:58;;;;;;;11.35;4.60;;;29.80;34.50;;;;;;12111026;28;20138;-78
2021/04/20 16:50:01;;;;;;;11.93;4.53;;;30.50;33.60;;;;;;12103067;28;20059;-77
2021/04/20 16:56:05;;;;;;;11.67;4.80;;;31.20;32.90;;;;;;12096081;28;20052;-73
2021/04/20 17:01:56;;;;;;;7.35;4.97;;;30.60;33.50;;;;;;12104699;28;20074;-73
2021/04/20 17:07:50;;;;;;;11.30;6.35;;;30.80;32.40;;;;;;12107652;28;20051;-73
2021/04/20 17:13:49;;;;;;;8.85;4.82;;;30.90;32.20;;;;;;12093365;28;20054;-74
2021/04/20 17:19:58;;;;;;;13.82;5.25;;;30.90;32.50;;;;;;12098012;28;20086;-72
2021/04/20 17:25:49;;;;;;;10.20;4.97;;;30.70;33.20;;;;;;12099461;28;20047;-74
2021/04/20 17:31:49;;;;;;;10.80;5.10;;;30.60;32.50;;;;;;12102269;28;20052;-73
2021/04/20 17:38:00;;;;;;;10.50;4.68;;;30.10;32.90;;;;;;12118468;28;20193;-73
2021/04/20 17:43:57;;;;;;;12.15;5.35;;;28.70;34.50;;;;;;12115788;28;20395;-73
2021/04/20 17:49:54;;;;;;;13.98;5.47;;;27.70;35.90;;;;;;12110487;28;20058;-73
2021/04/20 17:55:52;;;;;;;11.60;5.78;;;26.20;36.90;;;;;;12116067;28;20048;-73
2021/04/20 18:01:49;;;;;;;12.27;4.20;;;24.40;39.40;;;;;;12115240;28;20737;-73
2021/04/20 18:07:46;;;;;;;7.80;4.22;;;23.10;41.80;;;;;;12115607;28;20395;-72
2021/04/20 18:13:44;;;;;;;9.23;4.60;;;22.10;43.70;;;;;;12127644;28;20052;-73
2021/04/20 18:19:45;;;;;;;9.45;4.45;;;21.50;45.30;;;;;;12108512;28;20521;-74
2021/04/20 18:25:43;;;;;;;14.10;4.60;;;20.90;47.00;;;;;;12109418;28;20044;-73
2021/04/20 18:31:40;;;;;;;9.60;4.38;;;20.60;48.00;;;;;;12110309;28;20059;-73
2021/04/20 18:37:37;;;;;;;6.95;4.10;;;20.30;50.20;;;;;;12105452;28;20048;-73
2021/04/20 18:43:35;;;;;;;7.07;3.63;;;20.00;52.20;;;;;;12110184;28;20044;-73
2021/04/20 18:49:30;;;;;;;11.68;3.75;;;19.70;53.70;;;;;;12115038;28;20047;-73
2021/04/20 18:55:26;;;;;;;10.95;5.45;;;19.40;53.90;;;;;;12112154;28;20047;-74
2021/04/20 19:01:26;;;;;;;8.68;3.72;;;19.10;55.00;;;;;;12114676;28;20048;-73
2021/04/20 19:07:26;;;;;;;9.93;4.20;;;18.90;55.90;;;;;;12114174;28;20057;-73
2021/04/20 19:13:49;;;;;;;7.07;3.97;;;18.70;56.20;;;;;;12112509;28;20052;-73
2021/04/20 19:19:44;;;;;;;8.52;3.88;;;18.30;56.80;;;;;;12098367;28;20052;-74
2021/04/20 19:25:53;;;;;;;7.82;4.50;;;18.10;56.30;;;;;;12112486;28;20052;-73
2021/04/20 19:32:01;;;;;;;15.38;5.00;;;17.90;56.60;;;;;;12105480;28;20052;-73
2021/04/20 19:37:57;;;;;;;9.57;5.07;;;17.80;58.00;;;;;;12108716;28;20074;-73
2021/04/20 19:43:51;;;;;;;9.23;5.00;;;17.60;58.40;;;;;;12095821;28;20040;-73
2021/04/20 19:49:42;;;;;;;10.20;5.03;;;17.40;60.00;;;;;;12105360;28;20056;-73
2021/04/20 19:55:31;;;;;;;9.55;4.50;;;17.30;58.70;;;;;;12097363;28;20555;-73
2021/04/20 20:01:26;;;;;;;18.55;5.00;;;17.20;59.20;;;;;;12100183;28;20928;-73
2021/04/20 20:07:12;;;;;;;10.65;4.65;;;17.00;59.30;;;;;;12102008;28;20051;-72
2021/04/20 20:13:05;;;;;;;11.88;5.57;;;16.90;59.80;;;;;;12105685;28;20059;-73
2021/04/20 20:18:56;;;;;;;9.23;4.70;;;16.90;60.70;;;;;;12105014;28;20139;-76
2021/04/20 20:24:48;;;;;;;8.25;4.80;;;16.80;60.50;;;;;;12102237;28;20040;-76
2021/04/20 20:30:42;;;;;;;13.93;5.90;;;16.70;60.70;;;;;;12109349;28;20058;-76
2021/04/20 20:36:32;;;;;;;;;;;16.70;60.90;;;;;;12108759;28;20043;-75
2021/04/20 20:42:22;;;;;;;14.82;5.47;;;16.60;61.90;;;;;;12110054;28;19927;-76
2021/04/20 20:48:12;;;;;;;18.52;8.30;;;16.60;61.20;;;;;;12109188;28;20044;-75
2021/04/20 20:53:59;;;;;;;12.15;5.75;;;16.50;61.50;;;;;;12105835;28;20043;-75
2021/04/20 20:59:50;;;;;;;13.60;6.03;;;16.40;61.80;;;;;;12105186;28;20047;-74
2021/04/20 21:05:38;;;;;;;12.52;6.20;;;16.40;62.20;;;;;;12110050;28;20043;-73
2021/04/20 21:11:26;;;;;;;17.50;6.15;;;16.20;62.70;;;;;;12111922;28;20039;-74
2021/04/20 21:17:14;;;;;;;9.73;6.03;;;16.10;63.10;;;;;;12098690;28;20048;-73
2021/04/20 21:23:14;;;;;;;14.48;6.85;;;16.10;62.60;;;;;;12103498;28;20058;-74
2021/04/20 21:29:05;;;;;;;12.63;6.95;;;16.00;63.30;;;;;;12106120;28;20063;-73
2021/04/20 21:34:54;;;;;;;15.15;7.25;;;16.00;63.90;;;;;;12108219;28;20542;-73
2021/04/20 21:40:42;;;;;;;16.27;7.43;;;15.90;64.50;;;;;;12110691;28;20643;-73
2021/04/20 21:46:33;;;;;;;23.48;8.68;;;15.80;64.90;;;;;;12112699;28;20499;-73
2021/04/20 21:52:24;;;;;;;14.30;8.07;;;15.70;65.40;;;;;;12107504;28;20044;-73
2021/04/20 21:58:16;;;;;;;19.60;7.70;;;15.70;65.80;;;;;;12112461;28;20524;-73
2021/04/20 22:04:06;;;;;;;16.52;7.22;;;15.60;65.80;;;;;;12103345;28;20047;-73
2021/04/20 22:09:55;;;;;;;18.25;8.45;;;15.60;65.90;;;;;;12108940;28;20179;-73
2021/04/20 22:15:45;;;;;;;15.10;7.80;;;15.50;66.00;;;;;;12106801;28;20541;-73
2021/04/20 22:21:32;;;;;;;17.98;6.75;;;15.50;65.50;;;;;;12110597;28;20158;-73
2021/04/20 22:27:19;;;;;;;17.05;7.88;;;15.30;66.10;;;;;;12113747;28;20066;-73
2021/04/20 22:33:09;;;;;;;17.73;7.57;;;15.30;66.40;;;;;;12116534;28;20046;-73
2021/04/20 22:39:02;;;;;;;17.55;7.82;;;15.20;66.30;;;;;;12119779;28;20058;-72
2021/04/20 22:44:52;;;;;;;14.90;8.20;;;15.20;67.50;;;;;;12116904;28;20500;-73
2021/04/20 22:50:41;;;;;;;16.80;8.55;;;15.20;67.80;;;;;;12117424;28;20043;-73
2021/04/20 22:56:27;;;;;;;18.30;8.95;;;15.10;67.30;;;;;;12115937;28;20078;-76
2021/04/20 23:02:17;;;;;;;19.92;8.93;;;15.10;67.60;;;;;;12113604;28;20058;-74
2021/04/20 23:08:08;;;;;;;18.40;8.77;;;15.10;67.60;;;;;;12117042;28;20040;-74
2021/04/20 23:13:58;;;;;;;16.55;8.82;;;15.00;68.70;;;;;;12115736;28;20101;-75
2021/04/20 23:19:47;;;;;;;19.92;8.30;;;14.90;67.90;;;;;;12115629;28;20044;-74
2021/04/20 23:25:46;;;;;;;19.30;9.40;;;14.90;68.50;;;;;;12112339;28;20997;-75
2021/04/20 23:31:39;;;;;;;18.42;8.75;;;14.70;68.80;;;;;;12111721;28;20061;-74
2021/04/20 23:37:26;;;;;;;22.43;10.27;;;14.70;69.10;;;;;;12110499;28;20051;-73
2021/04/20 23:43:14;;;;;;;20.70;10.45;;;14.70;69.10;;;;;;12111683;28;20047;-73
2021/04/20 23:49:02;;;;;;;25.05;10.23;;;14.60;69.50;;;;;;12113887;28;20071;-73
2021/04/20 23:54:50;;;;;;;20.33;9.48;;;14.60;69.70;;;;;;12114166;28;20047;-73
